Time;durP1;ratioP1;P1;durP2;ratioP2;P2;SDS_P1;SDS_P2;PMS_P1;PMS_P2;Temp;Humidity;BMP_temperature;BMP_pressure;BME280_temperature;BME280_humidity;BME280_pressure;Samples;Min_cycle;Max_cycle;Signal;HPM_P1;HPM_P2
2021/06/10 00:00:30;;;;;;;3.45;3.10;;;;;;;16.18;58.97;100896.62;1621012;87;25890;-76
2021/06/10 00:02:59;;;;;;;7.42;3.72;;;;;;;16.16;59.05;100897.36;1602740;86;26445;-76
2021/06/10 00:05:26;;;;;;;7.12;4.05;;;;;;;16.12;58.96;100902.34;1619006;84;27430;-76
2021/06/10 00:07:54;;;;;;;5.72;3.45;;;;;;;16.09;58.97;100900.09;1656354;84;25870;-76
2021/06/10 00:10:24;;;;;;;4.25;3.83;;;;;;;16.07;59.02;100901.34;1600733;87;25990;-76
2021/06/10 00:12:52;;;;;;;6.40;3.40;;;;;;;16.03;58.95;100902.30;1591797;88;26613;-76
2021/06/10 00:15:24;;;;;;;7.85;3.67;;;;;;;16.02;59.07;100905.20;1572616;87;25995;-76
2021/06/10 00:17:51;;;;;;;4.45;3.33;;;;;;;15.97;59.10;100903.14;1648495;85;27473;-76
2021/06/10 00:20:22;;;;;;;10.28;3.70;;;;;;;15.88;59.21;100900.39;1587585;87;26574;-76
2021/06/10 00:22:50;;;;;;;5.10;3.40;;;;;;;15.83;59.37;100895.30;1627913;84;26644;-76
2021/06/10 00:25:17;;;;;;;6.90;3.70;;;;;;;15.81;59.57;100904.14;1614889;87;26014;-76
2021/06/10 00:27:45;;;;;;;11.03;7.10;;;;;;;15.76;59.39;100899.92;1644804;85;26464;-76
2021/06/10 00:30:16;;;;;;;24.37;12.78;;;;;;;15.74;59.62;100895.26;1559267;88;27546;-76
2021/06/10 00:32:49;;;;;;;16.05;9.93;;;;;;;15.69;59.70;100893.19;1651394;85;25889;-76
2021/06/10 00:35:19;;;;;;;29.95;16.67;;;;;;;15.65;59.87;100889.78;1657251;84;26450;-76
2021/06/10 00:37:46;;;;;;;24.50;13.60;;;;;;;15.61;59.84;100889.89;1675441;84;26282;-76
2021/06/10 00:40:14;;;;;;;33.92;17.90;;;;;;;15.56;59.87;100891.88;1613498;86;25359;-77
2021/06/10 00:42:42;;;;;;;27.52;16.15;;;;;;;15.55;60.04;100888.02;1614592;87;28165;-76
2021/06/10 00:45:14;;;;;;;15.72;9.90;;;;;;;15.52;60.01;100885.25;1630335;85;25972;-77
2021/06/10 00:47:44;;;;;;;17.42;10.38;;;;;;;15.49;60.04;100888.36;1640980;85;25880;-76
2021/06/10 00:50:13;;;;;;;32.28;17.95;;;;;;;15.47;60.01;100886.91;1601908;85;25983;-76
2021/06/10 00:52:41;;;;;;;29.18;16.27;;;;;;;15.46;60.14;100893.36;1654082;84;25804;-76
2021/06/10 00:55:09;;;;;;;26.45;14.30;;;;;;;15.44;60.04;100898.95;1677246;84;27651;-77
2021/06/10 00:57:36;;;;;;;27.67;17.05;;;;;;;15.42;60.12;100891.04;1674834;84;25687;-76
2021/06/10 01:00:07;;;;;;;72.35;39.18;;;;;;;15.40;60.06;100893.12;1659882;84;26103;-76
2021/06/10 01:02:35;;;;;;;47.00;23.90;;;;;;;15.39;60.16;100890.13;1632473;84;25920;-76
2021/06/10 01:05:05;;;;;;;21.40;13.30;;;;;;;15.38;60.34;100884.92;1674997;84;26654;-76
2021/06/10 01:08:24;;;;;;;11.40;7.80;;;;;;;15.36;60.32;100891.05;1676696;84;27506;-77
2021/06/10 01:11:02;;;;;;;10.23;5.42;;;;;;;15.34;60.56;100877.77;1621508;86;26033;-76
2021/06/10 01:13:44;;;;;;;6.70;4.87;;;;;;;15.30;60.49;100885.15;1641737;86;25795;-76
2021/06/10 01:16:16;;;;;;;6.72;4.67;;;;;;;15.25;60.69;100880.38;1602488;87;26033;-76
2021/06/10 01:18:43;;;;;;;7.55;4.70;;;;;;;15.23;60.66;100887.86;1644720;85;26608;-76
2021/06/10 01:21:10;;;;;;;4.50;4.12;;;;;;;15.22;60.82;100885.38;1622421;85;28270;-76
2021/06/10 01:24:14;;;;;;;6.72;4.78;;;;;;;15.21;60.92;100891.80;1606448;87;25831;-76
2021/06/10 01:27:01;;;;;;;7.45;5.10;;;;;;;15.17;60.86;100891.40;1632543;85;25860;-76
2021/06/10 01:29:28;;;;;;;11.80;4.90;;;;;;;15.15;61.03;100884.55;1663675;85;25758;-76
2021/06/10 01:31:55;;;;;;;8.08;5.80;;;;;;;15.11;60.99;100881.95;1588485;87;25849;-76
2021/06/10 01:34:25;;;;;;;5.60;4.50;;;;;;;15.08;61.12;100887.25;1629301;85;27587;-76
2021/06/10 01:36:54;;;;;;;5.87;4.47;;;;;;;15.04;61.26;100881.13;1618563;87;25937;-76
2021/06/10 01:39:25;;;;;;;6.65;4.00;;;;;;;14.99;61.39;100876.89;1640292;86;26050;-76
2021/06/10 01:41:53;;;;;;;7.00;5.53;;;;;;;14.94;61.31;100884.27;1624449;85;25815;-76
2021/06/10 01:44:22;;;;;;;5.40;4.70;;;;;;;14.93;61.41;100881.75;1569829;89;25950;-76
2021/06/10 01:46:50;;;;;;;6.33;4.35;;;;;;;14.92;61.55;100882.30;1664373;85;27393;-76
2021/06/10 01:49:18;;;;;;;6.00;4.85;;;;;;;14.88;61.61;100879.70;1674022;84;26413;-76
2021/06/10 01:51:46;;;;;;;7.17;5.12;;;;;;;14.84;61.71;100881.13;1625938;84;25769;-77
2021/06/10 01:54:16;;;;;;;6.75;4.53;;;;;;;14.83;61.62;100886.23;1649824;84;25887;-76
2021/06/10 01:56:45;;;;;;;8.13;4.85;;;;;;;14.80;61.68;100887.17;1645475;85;25869;-76
2021/06/10 01:59:15;;;;;;;5.10;4.70;;;;;;;14.75;61.97;100890.99;1646821;85;27618;-76
2021/06/10 02:01:44;;;;;;;5.05;4.53;;;;;;;14.68;62.03;100886.44;1678608;84;25850;-76
2021/06/10 02:04:13;;;;;;;5.45;4.60;;;;;;;14.59;62.10;100886.83;1646739;85;26521;-76
2021/06/10 02:06:41;;;;;;;7.42;4.55;;;;;;;14.48;62.38;100890.12;1678880;84;25792;-76
2021/06/10 02:09:11;;;;;;;5.20;4.70;;;;;;;14.37;62.54;100886.16;1632122;84;25994;-76
2021/06/10 02:11:39;;;;;;;8.43;5.17;;;;;;;14.30;62.72;100889.89;1602935;85;27475;-77
2021/06/10 02:14:07;;;;;;;4.95;4.37;;;;;;;14.22;62.94;100886.02;1624788;86;25844;-76
2021/06/10 02:16:38;;;;;;;4.75;4.33;;;;;;;14.14;63.05;100894.25;1622302;87;25522;-76
2021/06/10 02:19:05;;;;;;;7.40;4.80;;;;;;;14.08;63.13;100897.77;1660458;84;25950;-77
2021/06/10 02:21:32;;;;;;;4.70;4.20;;;;;;;13.98;63.09;100900.85;1627856;85;25913;-76
2021/06/10 02:23:59;;;;;;;4.87;4.37;;;;;;;13.87;63.12;100902.27;1622798;86;28238;-76
2021/06/10 02:26:27;;;;;;;8.75;4.92;;;;;;;13.81;63.40;100907.08;1622745;87;25867;-76
2021/06/10 02:28:54;;;;;;;5.05;4.15;;;;;;;13.77;63.65;100909.86;1623295;84;25820;-76
2021/06/10 02:31:21;;;;;;;6.50;4.70;;;;;;;13.72;63.79;100910.98;1624705;84;25893;-76
2021/06/10 02:33:48;;;;;;;12.15;6.60;;;;;;;13.67;63.91;100907.22;1674073;84;25921;-76
2021/06/10 02:36:18;;;;;;;25.23;15.85;;;;;;;13.63;64.25;100914.03;1642300;85;27467;-76
2021/06/10 02:38:53;;;;;;;11.43;7.58;;;;;;;13.61;64.58;100905.33;1675434;84;25884;-76
2021/06/10 02:41:24;;;;;;;13.08;7.75;;;;;;;13.58;64.77;100911.13;1672411;84;25831;-76
2021/06/10 02:43:52;;;;;;;18.32;11.55;;;;;;;13.51;64.87;100917.81;1646704;84;25826;-76
2021/06/10 02:46:20;;;;;;;6.47;5.22;;;;;;;13.42;65.18;100913.61;1678313;84;25307;-76
2021/06/10 02:48:49;;;;;;;8.63;5.60;;;;;;;13.30;65.15;100912.47;1589370;86;27471;-76
2021/06/10 02:51:17;;;;;;;6.42;5.00;;;;;;;13.28;65.24;100917.22;1644723;85;25949;-76
2021/06/10 02:53:46;;;;;;;8.43;5.05;;;;;;;13.24;65.25;100913.27;1672258;84;25877;-76
2021/06/10 02:56:16;;;;;;;6.45;5.08;;;;;;;13.23;65.53;100910.78;1671285;84;25861;-76
2021/06/10 02:58:45;;;;;;;6.15;5.40;;;;;;;13.24;65.66;100913.27;1636942;84;25870;-76
2021/06/10 03:01:12;;;;;;;5.62;5.12;;;;;;;13.26;65.87;100909.86;1653204;84;27616;-76
2021/06/10 03:03:42;;;;;;;6.22;5.25;;;;;;;13.28;66.18;100905.66;1675108;84;25990;-76
2021/06/10 03:06:10;;;;;;;6.80;5.40;;;;;;;13.30;66.30;100910.32;1639240;85;25839;-76
2021/06/10 03:08:38;;;;;;;5.95;5.15;;;;;;;13.32;66.51;100902.38;1592643;88;25954;-76
2021/06/10 03:11:08;;;;;;;7.10;5.50;;;;;;;13.38;66.78;100911.00;1594670;87;25872;-76
2021/06/10 03:13:37;;;;;;;6.62;5.85;;;;;;;13.44;66.79;100904.82;1623975;86;28289;-76
2021/06/10 03:16:05;;;;;;;7.25;5.80;;;;;;;13.51;66.99;100904.86;1624816;87;26503;-76
2021/06/10 03:18:33;;;;;;;5.85;5.25;;;;;;;13.53;66.59;100908.19;1648173;84;25625;-76
2021/06/10 03:21:01;;;;;;;9.15;5.70;;;;;;;13.55;66.71;100909.66;1658225;84;25885;-76
2021/06/10 03:23:28;;;;;;;9.05;5.60;;;;;;;13.59;66.88;100912.27;1643470;85;25727;-76
2021/06/10 03:25:56;;;;;;;9.30;5.30;;;;;;;13.65;66.86;100904.73;1607477;87;27597;-76
2021/06/10 03:28:25;;;;;;;7.42;5.47;;;;;;;13.72;66.96;100903.42;1595052;87;26371;-76
2021/06/10 03:30:52;;;;;;;7.58;5.85;;;;;;;13.79;66.88;100906.45;1614405;86;26587;-76
2021/06/10 03:33:20;;;;;;;9.38;6.35;;;;;;;13.85;66.92;100906.18;1634032;86;26492;-76
2021/06/10 03:35:48;;;;;;;7.80;6.17;;;;;;;13.93;67.04;100915.42;1636560;85;26593;-76
2021/06/10 03:38:15;;;;;;;7.58;5.60;;;;;;;14.00;67.26;100916.30;1610817;84;27469;-76
2021/06/10 03:40:45;;;;;;;7.55;6.03;;;;;;;14.04;67.16;100918.89;1613015;86;26065;-76
2021/06/10 03:43:14;;;;;;;9.60;7.35;;;;;;;14.10;67.28;100919.94;1596493;87;26008;-76
2021/06/10 03:45:41;;;;;;;8.20;6.50;;;;;;;14.12;67.45;100919.22;1698557;84;26422;-76
2021/06/10 03:48:10;;;;;;;7.40;6.47;;;;;;;14.16;67.63;100919.97;1588702;85;25795;-76
2021/06/10 03:50:38;;;;;;;12.90;7.22;;;;;;;14.24;67.74;100914.93;1570026;87;27534;-76
2021/06/10 03:53:06;;;;;;;9.08;7.10;;;;;;;14.30;67.77;100920.38;1675821;84;26023;-76
2021/06/10 03:55:34;;;;;;;9.58;7.17;;;;;;;14.35;67.75;100919.77;1645069;85;25744;-76
2021/06/10 03:58:01;;;;;;;12.80;7.20;;;;;;;14.40;67.95;100919.45;1679397;84;25850;-76
2021/06/10 04:00:28;;;;;;;9.70;6.62;;;;;;;14.47;68.10;100920.83;1656707;84;26172;-76
2021/06/10 04:02:59;;;;;;;7.37;6.67;;;;;;;14.57;68.25;100923.94;1643311;86;28247;-76
2021/06/10 04:05:30;;;;;;;8.43;6.58;;;;;;;14.65;68.31;100921.05;1645466;85;26649;-76
2021/06/10 04:07:57;;;;;;;9.75;6.67;;;;;;;14.77;68.42;100930.72;1620730;86;25375;-76
2021/06/10 04:10:25;;;;;;;9.83;7.15;;;;;;;14.87;68.50;100927.09;1618562;86;26659;-76
2021/06/10 04:12:52;;;;;;;12.25;7.85;;;;;;;14.99;68.45;100933.55;1617346;85;26229;-76
2021/06/10 04:15:20;;;;;;;8.03;7.20;;;;;;;15.04;68.26;100933.73;1649460;85;27479;-76
2021/06/10 04:17:47;;;;;;;7.92;6.05;;;;;;;15.09;68.33;100938.84;1599984;85;25896;-76
2021/06/10 04:20:15;;;;;;;9.63;7.03;;;;;;;15.16;68.84;100938.84;1627126;85;26190;-77
2021/06/10 04:22:43;;;;;;;9.88;7.35;;;;;;;15.29;68.75;100939.64;1654447;85;26386;-76
2021/06/10 04:25:11;;;;;;;10.18;7.75;;;;;;;15.39;68.68;100935.18;1655333;85;25875;-76
2021/06/10 04:27:39;;;;;;;12.00;7.20;;;;;;;15.42;68.52;100936.93;1619322;86;28153;-77
2021/06/10 04:30:12;;;;;;;12.25;7.22;;;;;;;15.43;68.66;100937.28;1597668;87;25884;-76
2021/06/10 04:32:44;;;;;;;9.85;6.70;;;;;;;15.46;68.78;100936.55;1652600;84;25810;-76
2021/06/10 04:35:13;;;;;;;9.33;7.62;;;;;;;15.52;68.80;100937.89;1639525;85;26231;-76
2021/06/10 04:37:41;;;;;;;11.78;8.20;;;;;;;15.60;68.68;100936.31;1602735;85;25614;-76
2021/06/10 04:40:10;;;;;;;9.13;6.87;;;;;;;15.68;68.86;100929.33;1604036;86;28308;-76
2021/06/10 04:42:37;;;;;;;9.35;7.80;;;;;;;15.78;69.03;100935.11;1628529;85;26028;-76
2021/06/10 04:45:08;;;;;;;10.20;7.58;;;;;;;15.86;69.08;100924.09;1641275;85;25910;-76
2021/06/10 04:47:35;;;;;;;10.18;7.53;;;;;;;15.94;69.12;100921.66;1599428;87;26669;-76
2021/06/10 04:50:04;;;;;;;9.38;7.12;;;;;;;16.07;69.45;100914.86;1594024;85;25900;-76
2021/06/10 04:52:31;;;;;;;11.83;8.48;;;;;;;16.19;69.23;100918.02;1664985;84;27499;-76
2021/06/10 04:54:59;;;;;;;9.45;6.95;;;;;;;16.33;69.31;100918.78;1673227;84;25832;-76
2021/06/10 04:57:25;;;;;;;9.20;6.92;;;;;;;16.45;69.16;100914.34;1673700;84;25713;-76
2021/06/10 04:59:53;;;;;;;8.03;7.33;;;;;;;16.54;69.15;100915.77;1653962;84;26180;-76
2021/06/10 05:02:20;;;;;;;10.88;7.20;;;;;;;16.62;69.00;100918.73;1677516;84;25606;-76
2021/06/10 05:04:47;;;;;;;7.90;7.08;;;;;;;16.69;68.99;100920.36;1670472;84;27562;-76
2021/06/10 05:07:14;;;;;;;9.73;7.37;;;;;;;16.75;68.83;100922.18;1641483;85;25944;-76
2021/06/10 05:09:41;;;;;;;12.98;7.22;;;;;;;16.82;68.72;100918.08;1651544;84;26664;-76
2021/06/10 05:12:08;;;;;;;11.05;7.30;;;;;;;16.90;69.08;100914.58;1670774;84;26541;-76
2021/06/10 05:14:35;;;;;;;11.83;7.28;;;;;;;16.99;68.84;100916.48;1680084;84;25885;-77
2021/06/10 05:17:04;;;;;;;8.08;6.85;;;;;;;17.08;68.74;100925.16;1577041;85;27591;-77
2021/06/10 05:19:31;;;;;;;11.18;6.97;;;;;;;17.21;69.22;100923.69;1597128;85;25877;-77
2021/06/10 05:21:58;;;;;;;7.17;6.25;;;;;;;17.31;68.83;100932.13;1644571;85;25875;-77
2021/06/10 05:24:27;;;;;;;10.53;6.83;;;;;;;17.37;69.05;100925.82;1614247;87;25821;-77
2021/06/10 05:26:57;;;;;;;7.85;6.85;;;;;;;17.49;68.88;100924.86;1642147;85;26068;-77
2021/06/10 05:29:24;;;;;;;10.03;6.20;;;;;;;17.61;68.94;100917.70;1566822;87;28347;-76
2021/06/10 05:31:51;;;;;;;10.45;6.30;;;;;;;17.69;68.61;100919.27;1679451;84;25851;-76
2021/06/10 05:34:18;;;;;;;8.58;5.87;;;;;;;17.79;68.60;100917.41;1675505;84;25851;-76
2021/06/10 05:36:46;;;;;;;9.50;6.55;;;;;;;17.82;68.09;100915.58;1629978;84;25953;-76
2021/06/10 05:39:13;;;;;;;7.35;6.50;;;;;;;17.89;68.33;100909.05;1602134;85;25871;-76
2021/06/10 05:41:40;;;;;;;8.53;6.78;;;;;;;18.00;67.98;100910.16;1644166;85;27466;-76
2021/06/10 05:44:07;;;;;;;6.37;5.78;;;;;;;18.06;67.69;100907.89;1619381;85;25930;-76
2021/06/10 05:46:34;;;;;;;10.68;6.10;;;;;;;18.10;67.62;100908.56;1622072;86;26545;-76
2021/06/10 05:49:01;;;;;;;8.88;6.08;;;;;;;18.13;67.78;100913.55;1607835;87;25793;-77
2021/06/10 05:51:28;;;;;;;8.90;6.55;;;;;;;18.23;67.78;100908.92;1683430;84;25884;-76
2021/06/10 05:53:55;;;;;;;6.10;5.53;;;;;;;18.28;66.99;100909.88;1657479;85;27549;-76
2021/06/10 05:56:22;;;;;;;6.37;5.67;;;;;;;18.32;66.99;100909.73;1643736;84;26548;-76
2021/06/10 05:58:49;;;;;;;7.75;5.70;;;;;;;18.41;67.03;100911.60;1628335;85;25893;-76
2021/06/10 06:01:16;;;;;;;8.60;5.92;;;;;;;18.52;66.88;100910.02;1613610;86;26537;-75
2021/06/10 06:03:44;;;;;;;10.15;5.85;;;;;;;18.62;67.18;100906.20;1612176;85;25813;-75
2021/06/10 06:06:11;;;;;;;6.50;5.62;;;;;;;18.69;66.63;100907.75;1629045;84;28919;-78
2021/06/10 06:08:38;;;;;;;7.10;5.85;;;;;;;18.82;66.70;100905.39;1678518;84;26511;-78
2021/06/10 06:11:05;;;;;;;6.83;5.90;;;;;;;18.95;67.27;100908.69;1645868;86;25804;-77
2021/06/10 06:13:47;;;;;;;6.53;5.08;;;;;;;19.05;65.63;100911.65;1607425;86;26691;-76
2021/06/10 06:16:20;;;;;;;7.37;5.20;;;;;;;19.07;65.60;100917.70;1647124;84;26002;-76
2021/06/10 06:18:48;;;;;;;5.87;5.28;;;;;;;19.22;66.17;100917.23;1678520;84;27478;-76
2021/06/10 06:21:15;;;;;;;7.67;5.17;;;;;;;19.34;64.85;100917.22;1668049;85;25958;-76
2021/06/10 06:23:42;;;;;;;6.47;5.60;;;;;;;19.40;64.68;100914.42;1598420;85;26169;-76
2021/06/10 06:26:11;;;;;;;7.33;5.42;;;;;;;19.49;64.73;100904.86;1628861;84;26466;-76
2021/06/10 06:28:42;;;;;;;6.20;5.17;;;;;;;19.60;64.14;100911.34;1656763;85;25904;-77
2021/06/10 06:31:09;;;;;;;6.20;5.45;;;;;;;19.67;63.49;100909.33;1625272;84;28026;-77
2021/06/10 06:33:37;;;;;;;7.97;5.05;;;;;;;19.68;62.95;100911.80;1597862;85;26017;-77
2021/06/10 06:36:06;;;;;;;7.00;4.70;;;;;;;19.72;63.44;100905.34;1594803;88;25997;-77
2021/06/10 06:38:33;;;;;;;5.55;4.25;;;;;;;19.81;63.65;100915.63;1628009;86;26130;-77
2021/06/10 06:41:00;;;;;;;4.47;3.75;;;;;;;19.90;63.05;100912.00;1648791;85;25738;-76
2021/06/10 06:43:30;;;;;;;5.35;3.60;;;;;;;19.94;62.78;100911.28;1599973;87;27671;-77
2021/06/10 06:45:58;;;;;;;5.85;3.20;;;;;;;20.02;62.05;100910.06;1596379;85;26239;-76
2021/06/10 06:48:28;;;;;;;8.15;3.95;;;;;;;20.09;61.86;100916.20;1628638;86;26643;-76
2021/06/10 06:50:56;;;;;;;5.22;3.80;;;;;;;20.16;60.63;100910.63;1650672;85;26159;-77
2021/06/10 06:53:23;;;;;;;7.35;4.20;;;;;;;20.20;61.09;100916.73;1603211;86;25918;-77
2021/06/10 06:55:50;;;;;;;7.17;3.33;;;;;;;20.25;59.77;100914.09;1623998;85;27754;-77
2021/06/10 06:58:17;;;;;;;7.03;3.50;;;;;;;20.27;59.58;100911.98;1642972;86;26593;-77
2021/06/10 07:00:44;;;;;;;7.25;3.10;;;;;;;20.32;59.65;100907.16;1644923;85;25328;-77
2021/06/10 07:03:11;;;;;;;4.83;2.92;;;;;;;20.40;60.21;100908.95;1623609;85;26533;-77
2021/06/10 07:05:38;;;;;;;4.95;3.17;;;;;;;20.52;59.00;100909.73;1604497;87;26416;-77
2021/06/10 07:08:05;;;;;;;7.10;3.42;;;;;;;20.53;58.09;100918.18;1615602;87;27630;-77
2021/06/10 07:10:33;;;;;;;4.83;2.95;;;;;;;20.50;58.37;100917.85;1647950;85;25954;-77
2021/06/10 07:13:00;;;;;;;3.47;2.55;;;;;;;20.55;58.65;100911.16;1623611;86;26622;-77
2021/06/10 07:15:27;;;;;;;3.90;2.58;;;;;;;20.59;57.38;100915.03;1605933;85;25787;-77
2021/06/10 07:17:54;;;;;;;4.62;2.85;;;;;;;20.60;58.08;100913.95;1630184;85;26584;-77
2021/06/10 07:20:21;;;;;;;6.70;3.00;;;;;;;20.65;57.88;100904.52;1649560;85;27523;-77
2021/06/10 07:22:48;;;;;;;5.42;3.58;;;;;;;20.76;58.30;100913.16;1606251;85;25763;-77
2021/06/10 07:25:15;;;;;;;4.92;2.85;;;;;;;20.86;57.29;100916.05;1594456;86;25395;-77
2021/06/10 07:27:43;;;;;;;3.22;2.92;;;;;;;20.92;57.66;100910.98;1617764;85;26081;-77
2021/06/10 07:30:12;;;;;;;4.42;2.98;;;;;;;20.97;56.42;100914.33;1616637;87;25939;-76
2021/06/10 07:32:39;;;;;;;4.05;2.47;;;;;;;21.03;57.14;100911.47;1619669;85;27550;-77
2021/06/10 07:35:08;;;;;;;5.08;2.55;;;;;;;21.10;56.27;100910.78;1594799;87;26043;-77
2021/06/10 07:37:35;;;;;;;4.75;2.65;;;;;;;21.17;57.34;100911.41;1621416;86;25867;-76
2021/06/10 07:40:03;;;;;;;3.12;2.77;;;;;;;21.29;56.77;100909.44;1629569;87;25928;-77
2021/06/10 07:42:30;;;;;;;3.80;3.42;;;;;;;21.34;55.91;100910.86;1647221;84;25907;-77
2021/06/10 07:44:57;;;;;;;6.33;3.50;;;;;;;21.32;55.60;100913.58;1622589;86;28371;-77
2021/06/10 07:47:25;;;;;;;5.53;3.37;;;;;;;21.31;56.30;100916.83;1629596;86;26581;-77
2021/06/10 07:49:52;;;;;;;4.50;3.10;;;;;;;21.39;55.78;100915.04;1676927;84;25386;-77
2021/06/10 07:52:19;;;;;;;3.60;3.30;;;;;;;21.45;56.03;100922.21;1660536;84;26401;-78
2021/06/10 07:54:46;;;;;;;4.20;2.90;;;;;;;21.51;55.90;100919.03;1623756;84;25909;-76
2021/06/10 07:57:14;;;;;;;11.83;3.02;;;;;;;21.59;55.52;100915.05;1621703;86;27348;-77
2021/06/10 07:59:41;;;;;;;8.80;3.42;;;;;;;21.62;53.77;100911.27;1624105;87;25747;-77
2021/06/10 08:02:08;;;;;;;4.90;3.10;;;;;;;21.64;54.58;100912.40;1606639;87;26456;-77
2021/06/10 08:04:35;;;;;;;3.20;2.90;;;;;;;21.67;54.31;100911.87;1623297;85;25902;-77
2021/06/10 08:07:03;;;;;;;3.37;2.70;;;;;;;21.69;53.99;100913.28;1637986;86;25943;-76
2021/06/10 08:09:32;;;;;;;4.33;3.87;;;;;;;21.78;54.51;100917.23;1646196;85;27915;-77
2021/06/10 08:12:00;;;;;;;3.62;2.92;;;;;;;21.88;53.70;100913.83;1594061;87;25954;-77
2021/06/10 08:14:27;;;;;;;3.85;2.98;;;;;;;21.95;53.50;100911.74;1595362;87;26630;-77
2021/06/10 08:16:55;;;;;;;3.10;2.80;;;;;;;22.03;53.28;100914.02;1604220;88;26538;-77
2021/06/10 08:19:22;;;;;;;2.55;2.35;;;;;;;22.08;52.89;100918.19;1647202;85;25750;-77
2021/06/10 08:21:49;;;;;;;3.12;2.62;;;;;;;22.11;51.90;100914.39;1590256;87;27512;-77
2021/06/10 08:24:16;;;;;;;3.67;2.40;;;;;;;22.14;53.14;100910.34;1612866;86;26478;-77
2021/06/10 08:26:43;;;;;;;3.35;2.08;;;;;;;22.08;51.82;100909.47;1619006;86;25646;-77
2021/06/10 08:29:11;;;;;;;5.17;2.30;;;;;;;22.00;51.47;100914.55;1635396;86;26375;-77
2021/06/10 08:31:39;;;;;;;4.28;2.30;;;;;;;22.01;49.85;100915.64;1615931;86;26165;-77
2021/06/10 08:34:06;;;;;;;5.62;2.75;;;;;;;22.01;50.34;100918.91;1599163;85;27651;-77
2021/06/10 08:36:34;;;;;;;3.52;2.17;;;;;;;22.04;51.25;100921.14;1626531;87;25933;-77
2021/06/10 08:39:01;;;;;;;4.00;2.80;;;;;;;22.06;49.51;100920.34;1648524;85;25818;-76
2021/06/10 08:41:28;;;;;;;3.83;2.67;;;;;;;22.07;50.08;100915.16;1629757;84;26675;-77
2021/06/10 08:43:59;;;;;;;14.35;5.05;;;;;;;22.12;51.66;100917.42;1616207;85;26043;-77
2021/06/10 08:46:27;;;;;;;4.22;2.20;;;;;;;22.21;50.94;100913.70;1638312;86;27351;-77
2021/06/10 08:48:54;;;;;;;4.62;2.27;;;;;;;22.30;51.14;100910.81;1626301;85;25874;-77
2021/06/10 08:51:21;;;;;;;3.90;1.90;;;;;;;22.44;50.77;100903.86;1621154;86;25784;-77
2021/06/10 08:53:50;;;;;;;2.58;2.37;;;;;;;22.55;51.34;100913.81;1606898;87;25903;-77
2021/06/10 08:56:18;;;;;;;4.30;2.90;;;;;;;22.62;49.80;100916.36;1641860;86;25807;-77
2021/06/10 08:58:45;;;;;;;2.20;2.10;;;;;;;22.56;49.32;100914.08;1650386;85;27214;-77
2021/06/10 09:01:15;;;;;;;3.75;1.85;;;;;;;22.58;49.78;100911.11;1582680;88;26015;-77
2021/06/10 09:03:42;;;;;;;2.30;2.10;;;;;;;22.60;49.52;100913.91;1660707;84;25641;-77
2021/06/10 09:06:17;;;;;;;4.75;2.77;;;;;;;22.58;47.82;100918.73;1650951;85;26466;-77
2021/06/10 09:08:48;;;;;;;3.22;1.87;;;;;;;22.56;48.54;100912.70;1672780;84;25848;-76
2021/06/10 09:11:23;;;;;;;11.20;3.75;;;;;;;22.55;49.28;100907.52;1631668;84;27508;-76
2021/06/10 09:13:56;;;;;;;12.50;2.92;;;;;;;22.44;48.86;100912.58;1677365;84;26311;-77
2021/06/10 09:16:33;;;;;;;2.00;1.90;;;;;;;22.52;49.52;100913.51;1667836;84;25769;-76
2021/06/10 09:19:11;;;;;;;3.42;2.08;;;;;;;22.62;47.25;100917.20;1658753;84;25956;-77
2021/06/10 09:22:00;;;;;;;4.28;2.08;;;;;;;22.67;47.54;100910.94;1655730;84;25805;-78
2021/06/10 09:24:33;;;;;;;4.03;2.40;;;;;;;22.78;48.60;100914.87;1647437;84;27517;-76
2021/06/10 09:27:13;;;;;;;2.15;1.95;;;;;;;22.86;47.78;100915.77;1647631;86;26586;-77
2021/06/10 09:29:52;;;;;;;9.23;2.60;;;;;;;22.86;47.43;100904.84;1598206;85;25566;-77
2021/06/10 09:32:24;;;;;;;3.90;2.45;;;;;;;22.91;46.12;100908.16;1594207;87;25974;-77
2021/06/10 09:35:02;;;;;;;3.50;2.33;;;;;;;22.98;46.31;100908.24;1602193;88;25854;-77
2021/06/10 09:37:35;;;;;;;2.12;1.72;;;;;;;23.08;47.36;100913.48;1666981;85;27599;-77
2021/06/10 09:40:13;;;;;;;3.20;1.80;;;;;;;23.16;45.76;100913.83;1627437;85;26485;-76
2021/06/10 09:42:43;;;;;;;3.17;1.75;;;;;;;23.14;46.09;100921.46;1671522;84;25923;-77
2021/06/10 09:45:13;;;;;;;4.15;1.98;;;;;;;23.15;45.54;100917.66;1683320;84;25886;-77
2021/06/10 09:47:47;;;;;;;2.72;1.82;;;;;;;23.16;44.80;100916.55;1675536;84;33801;-77
2021/06/10 09:50:42;;;;;;;4.17;2.77;;;;;;;23.14;44.78;100911.09;1597554;85;28041;-78
2021/06/10 09:53:15;;;;;;;5.92;2.50;;;;;;;23.19;45.71;100912.48;1619233;85;26837;-77
2021/06/10 09:55:53;;;;;;;3.37;1.90;;;;;;;23.29;45.38;100917.48;1641913;85;25903;-77
2021/06/10 09:58:41;;;;;;;4.00;1.50;;;;;;;23.35;45.20;100910.98;1622628;87;26304;-77
2021/06/10 10:01:14;;;;;;;3.58;1.87;;;;;;;23.30;45.09;100915.04;1566028;88;27007;-77
2021/06/10 10:03:44;;;;;;;3.12;1.60;;;;;;;23.33;45.05;100910.99;1577740;87;27501;-77
2021/06/10 10:06:23;;;;;;;5.45;2.33;;;;;;;23.32;45.41;100914.23;1605951;88;26481;-77
2021/06/10 10:09:02;;;;;;;3.85;2.10;;;;;;;23.34;45.25;100905.25;1672761;84;25872;-77
2021/06/10 10:11:33;;;;;;;4.35;2.00;;;;;;;23.36;46.01;100906.34;1616332;86;26604;-77
2021/06/10 10:14:03;;;;;;;2.27;1.50;;;;;;;23.45;45.26;100902.04;1597792;88;25831;-78
2021/06/10 10:16:34;;;;;;;1.62;1.25;;;;;;;23.47;44.18;100901.23;1589656;87;27478;-77
2021/06/10 10:19:03;;;;;;;4.67;1.60;;;;;;;23.51;42.27;100905.08;1623040;87;25341;-78
2021/06/10 10:21:35;;;;;;;2.37;1.70;;;;;;;23.52;43.27;100902.64;1569690;88;26626;-77
2021/06/10 10:24:12;;;;;;;1.52;1.32;;;;;;;23.58;43.86;100900.21;1648153;84;26418;-76
2021/06/10 10:26:40;;;;;;;1.62;1.52;;;;;;;23.68;44.30;100896.16;1649907;85;25827;-77
2021/06/10 10:29:11;;;;;;;2.25;1.50;;;;;;;23.71;43.39;100897.83;1641842;86;28174;-77
2021/06/10 10:31:40;;;;;;;2.65;1.85;;;;;;;23.70;44.61;100903.02;1596746;86;25403;-77
2021/06/10 10:34:27;;;;;;;2.83;1.20;;;;;;;23.72;42.67;100896.73;1656771;84;25602;-77
2021/06/10 10:36:54;;;;;;;1.60;1.12;;;;;;;23.70;40.72;100899.45;1674983;84;25838;-77
2021/06/10 10:39:35;;;;;;;2.80;1.00;;;;;;;23.67;40.83;100899.42;1616988;85;25944;-77
2021/06/10 10:42:02;;;;;;;4.12;1.12;;;;;;;23.70;40.04;100892.61;1601092;86;26942;-77
2021/06/10 10:44:31;;;;;;;1.40;1.30;;;;;;;23.75;40.52;100892.11;1602269;86;25855;-77
2021/06/10 10:47:11;;;;;;;6.42;1.32;;;;;;;23.76;40.16;100894.27;1644487;85;25765;-77
2021/06/10 10:49:53;;;;;;;2.50;1.00;;;;;;;23.72;40.76;100893.16;1622881;87;27041;-77
2021/06/10 10:52:31;;;;;;;1.40;1.30;;;;;;;23.74;39.57;100890.45;1601688;88;25784;-77
2021/06/10 10:55:17;;;;;;;6.83;1.45;;;;;;;23.73;39.83;100883.34;1577784;88;27519;-77
2021/06/10 10:57:45;;;;;;;2.60;1.25;;;;;;;23.80;40.65;100880.91;1603961;88;26654;-77
2021/06/10 11:00:17;;;;;;;1.85;1.25;;;;;;;23.93;39.93;100876.31;1621949;86;25406;-77
2021/06/10 11:02:50;;;;;;;1.40;1.25;;;;;;;23.95;39.94;100882.34;1616384;87;25737;-77
2021/06/10 11:05:31;;;;;;;2.87;1.75;;;;;;;23.88;39.39;100879.84;1643152;85;25839;-77
2021/06/10 11:07:58;;;;;;;2.37;1.70;;;;;;;23.78;40.80;100878.98;1627727;85;27567;-77
2021/06/10 11:10:53;;;;;;;2.55;2.35;;;;;;;23.78;40.62;100883.88;1649318;85;25886;-77
2021/06/10 11:13:26;;;;;;;3.77;2.10;;;;;;;23.79;40.42;100869.12;1604539;86;26518;-77
2021/06/10 11:16:01;;;;;;;1.50;1.10;;;;;;;23.81;40.20;100871.05;1566012;88;25947;-77
2021/06/10 11:18:50;;;;;;;2.17;1.82;;;;;;;23.90;40.65;100866.72;1652497;84;25867;-77
2021/06/10 11:21:46;;;;;;;1.80;1.40;;;;;;;24.00;40.95;100863.18;1652392;84;28148;-77
2021/06/10 11:24:19;;;;;;;2.37;1.70;;;;;;;24.04;39.40;100870.63;1626745;84;26420;-77
2021/06/10 11:27:02;;;;;;;1.67;1.27;;;;;;;24.08;39.67;100864.88;1624782;85;26003;-77
2021/06/10 11:29:30;;;;;;;2.55;1.55;;;;;;;24.11;39.27;100862.99;1636777;86;25905;-77
2021/06/10 11:32:23;;;;;;;1.60;1.50;;;;;;;24.14;40.08;100854.25;1643585;85;25869;-77
2021/06/10 11:34:53;;;;;;;1.50;1.40;;;;;;;24.20;38.65;100854.53;1629057;85;28110;-77
2021/06/10 11:37:22;;;;;;;1.67;1.27;;;;;;;24.17;37.68;100859.70;1642014;85;26021;-77